createdAt,value
2017-06-13T00:00:48.932Z,46.60
2017-06-13T00:03:17.758Z,46.60
2017-06-13T00:05:46.884Z,46.30
2017-06-13T00:08:15.278Z,46.30
2017-06-13T00:10:43.815Z,46.40
2017-06-13T00:13:12.206Z,46.30
2017-06-13T00:15:40.589Z,46.40
2017-06-13T00:18:09.009Z,46.40
2017-06-13T00:20:37.387Z,46.30
2017-06-13T00:23:05.787Z,46.30
2017-06-13T00:25:34.488Z,46.30
2017-06-13T00:28:02.891Z,46.20
2017-06-13T00:30:31.280Z,46.20
2017-06-13T00:32:59.692Z,46.30
2017-06-13T00:35:28.068Z,46.30
2017-06-13T00:37:56.445Z,46.50
2017-06-13T00:40:25.669Z,46.40
2017-06-13T00:42:54.174Z,46.40
2017-06-13T00:45:22.556Z,46.60
2017-06-13T00:47:51.115Z,46.50
2017-06-13T00:50:20.282Z,46.80
2017-06-13T00:52:48.676Z,46.80
2017-06-13T00:55:17.075Z,47.10
2017-06-13T00:57:46.225Z,47.30
2017-06-13T01:00:14.614Z,47.10
2017-06-13T01:02:43.096Z,47.20
2017-06-13T01:05:11.473Z,47.20
2017-06-13T01:07:39.864Z,47.10
2017-06-13T01:10:08.401Z,47.10
2017-06-13T01:12:36.777Z,47.10
2017-06-13T01:15:05.295Z,47.10
2017-06-13T01:17:33.733Z,47.10
2017-06-13T01:20:02.370Z,47.10
2017-06-13T01:22:30.956Z,47.20
2017-06-13T01:24:59.385Z,47.10
2017-06-13T01:27:27.860Z,47.10
2017-06-13T01:29:57.021Z,47.80
2017-06-13T01:32:25.634Z,47.10
2017-06-13T01:34:54.020Z,47.10
2017-06-13T01:37:22.414Z,47.10
2017-06-13T01:39:50.880Z,47.10
2017-06-13T01:42:19.267Z,47.10
2017-06-13T01:44:47.742Z,47.10
2017-06-13T01:47:16.416Z,47.10
2017-06-13T01:49:45.586Z,47.20
2017-06-13T01:52:13.972Z,47.10
2017-06-13T01:54:42.695Z,47.10
2017-06-13T01:57:11.090Z,47.10
2017-06-13T01:59:39.498Z,47.10
2017-06-13T02:02:08.024Z,47.40
2017-06-13T02:04:36.420Z,47.70
2017-06-13T02:07:04.803Z,47.60
2017-06-13T02:09:33.269Z,47.10
2017-06-13T02:12:02.396Z,48.00
2017-06-13T02:14:30.791Z,47.90
2017-06-13T02:16:59.222Z,47.90
2017-06-13T02:19:27.602Z,47.70
2017-06-13T02:21:56.736Z,47.90
2017-06-13T02:24:25.337Z,47.90
2017-06-13T02:26:53.716Z,47.80
2017-06-13T02:29:22.092Z,47.90
2017-06-13T02:31:50.829Z,47.80
2017-06-13T02:34:19.308Z,47.80
2017-06-13T02:36:47.686Z,47.90
2017-06-13T02:39:17.090Z,47.90
2017-06-13T02:41:46.320Z,48.00
2017-06-13T02:44:14.706Z,47.90
2017-06-13T02:46:43.149Z,48.10
2017-06-13T02:49:12.255Z,48.30
2017-06-13T02:51:40.654Z,48.30
2017-06-13T02:54:09.317Z,48.50
2017-06-13T02:56:37.681Z,48.70
2017-06-13T02:59:06.816Z,48.90
2017-06-13T03:01:35.239Z,48.80
2017-06-13T03:04:04.395Z,49.10
2017-06-13T03:06:32.778Z,49.10
2017-06-13T03:09:01.525Z,49.10
2017-06-13T03:11:30.656Z,49.10
2017-06-13T03:13:59.032Z,49.10
2017-06-13T03:16:27.681Z,49.30
2017-06-13T03:18:56.166Z,49.10
2017-06-13T03:21:24.570Z,49.20
2017-06-13T03:23:53.132Z,49.40
2017-06-13T03:26:21.553Z,49.10
2017-06-13T03:28:49.941Z,49.20
2017-06-13T03:31:18.487Z,49.00
2017-06-13T03:33:47.002Z,49.50
2017-06-13T03:36:15.399Z,49.50
2017-06-13T03:38:44.826Z,50.20
2017-06-13T03:41:13.193Z,49.50
2017-06-13T03:43:42.360Z,49.70
2017-06-13T03:46:10.791Z,49.70
2017-06-13T03:48:39.164Z,49.70
2017-06-13T03:51:07.550Z,50.00
2017-06-13T03:53:36.130Z,49.70
2017-06-13T03:56:05.079Z,49.60
2017-06-13T03:58:33.457Z,50.10
2017-06-13T04:01:01.884Z,50.10
2017-06-13T04:03:31.124Z,50.70
2017-06-13T04:05:59.515Z,50.30
2017-06-13T04:08:28.230Z,50.60
2017-06-13T04:10:56.679Z,51.00
2017-06-13T04:13:25.053Z,51.00
2017-06-13T04:15:59.494Z,51.00
2017-06-13T04:18:27.872Z,51.00
2017-06-13T04:20:56.284Z,50.80
2017-06-13T04:23:24.965Z,51.00
2017-06-13T04:25:53.462Z,50.90
2017-06-13T04:28:21.860Z,50.90
2017-06-13T04:30:50.336Z,50.90
2017-06-13T04:33:18.729Z,50.90
2017-06-13T04:35:47.171Z,51.10
2017-06-13T04:38:16.588Z,50.80
2017-06-13T04:40:44.976Z,51.00
2017-06-13T04:43:13.657Z,50.80
2017-06-13T04:45:42.153Z,51.10
2017-06-13T04:48:10.508Z,51.10
2017-06-13T04:50:38.915Z,51.00
2017-06-13T04:53:07.668Z,51.00
2017-06-13T04:55:36.067Z,51.00
2017-06-13T04:58:04.514Z,51.10
2017-06-13T05:00:33.780Z,50.90
2017-06-13T05:03:02.279Z,51.10
2017-06-13T05:05:30.690Z,51.10
2017-06-13T05:07:59.400Z,51.10
2017-06-13T05:10:27.820Z,51.10
2017-06-13T05:12:56.251Z,51.50
2017-06-13T05:15:24.678Z,51.60
2017-06-13T05:17:53.861Z,51.60
2017-06-13T05:20:22.247Z,51.50
2017-06-13T05:22:50.828Z,51.30
2017-06-13T05:25:19.213Z,51.50
2017-06-13T05:27:47.631Z,51.50
2017-06-13T05:30:16.113Z,51.80
2017-06-13T05:32:45.246Z,52.00
2017-06-13T05:35:13.654Z,52.00
2017-06-13T05:37:42.271Z,51.80
2017-06-13T05:40:10.672Z,52.00
2017-06-13T05:42:39.053Z,52.10
2017-06-13T05:45:07.489Z,52.10
2017-06-13T05:47:35.999Z,52.40
2017-06-13T05:50:05.761Z,52.40
2017-06-13T05:52:34.876Z,52.20
2017-06-13T05:55:04.028Z,52.60
2017-06-13T05:57:32.477Z,52.20
2017-06-13T06:00:01.630Z,52.30
2017-06-13T06:02:30.020Z,52.20
2017-06-13T06:04:58.393Z,52.50
2017-06-13T06:07:27.015Z,52.90
2017-06-13T06:09:55.417Z,52.30
2017-06-13T06:12:24.951Z,52.70
2017-06-13T06:14:53.386Z,52.70
2017-06-13T06:17:21.965Z,52.60
2017-06-13T06:19:51.133Z,52.50
2017-06-13T06:22:19.564Z,52.90
2017-06-13T06:24:48.027Z,52.60
2017-06-13T06:27:16.444Z,52.80
2017-06-13T06:29:45.100Z,52.70
2017-06-13T06:32:13.474Z,52.60
2017-06-13T06:34:41.858Z,52.40
2017-06-13T06:37:10.391Z,52.50
2017-06-13T06:39:38.776Z,52.40
2017-06-13T06:42:07.153Z,52.50
2017-06-13T06:44:36.433Z,52.90
2017-06-13T06:47:04.872Z,52.60
2017-06-13T06:49:34.016Z,52.70
2017-06-13T06:52:02.456Z,52.70
2017-06-13T06:54:30.843Z,52.70
2017-06-13T06:56:59.288Z,52.70
2017-06-13T06:59:27.741Z,52.20
2017-06-13T07:01:56.163Z,52.40
2017-06-13T07:04:24.565Z,52.00
2017-06-13T07:06:53.244Z,52.20
2017-06-13T07:12:00.053Z,52.40
2017-06-13T07:14:28.457Z,52.50
2017-06-13T07:16:56.873Z,52.60
2017-06-13T07:19:25.307Z,52.40
2017-06-13T07:21:53.719Z,52.40
2017-06-13T07:24:22.872Z,52.10
2017-06-13T07:26:51.534Z,52.10
2017-06-13T07:29:19.925Z,52.20
2017-06-13T07:31:48.324Z,52.20
2017-06-13T07:34:16.877Z,52.00
2017-06-13T07:36:45.284Z,51.70
2017-06-13T07:39:13.756Z,51.60
2017-06-13T07:41:42.216Z,51.70
2017-06-13T07:44:10.607Z,51.50
2017-06-13T07:46:39.019Z,51.70
2017-06-13T07:49:07.597Z,51.80
2017-06-13T07:51:36.017Z,51.40
2017-06-13T07:54:04.429Z,51.30
2017-06-13T07:56:32.966Z,51.30
2017-06-13T07:59:01.354Z,51.60
2017-06-13T08:01:29.783Z,51.10
2017-06-13T08:03:58.545Z,50.90
2017-06-13T08:06:26.965Z,50.70
2017-06-13T08:08:56.828Z,50.70
2017-06-13T08:11:25.302Z,50.60
2017-06-13T08:13:54.452Z,51.10
2017-06-13T08:16:22.891Z,51.10
2017-06-13T08:18:51.380Z,51.00
2017-06-13T08:21:19.906Z,50.80
2017-06-13T08:23:48.353Z,50.80
2017-06-13T08:26:16.794Z,51.10
2017-06-13T08:28:45.959Z,50.20
2017-06-13T08:31:14.362Z,50.20
2017-06-13T08:33:42.815Z,50.50
2017-06-13T08:36:11.214Z,50.90
2017-06-13T08:38:39.617Z,50.60
2017-06-13T08:41:08.024Z,50.50
2017-06-13T08:43:36.490Z,50.20
2017-06-13T08:46:04.897Z,50.70
2017-06-13T08:48:33.659Z,50.80
2017-06-13T08:51:02.081Z,49.60
2017-06-13T08:53:30.496Z,49.40
2017-06-13T08:55:58.960Z,49.50
2017-06-13T08:58:27.398Z,49.40
2017-06-13T09:00:55.939Z,49.40
2017-06-13T09:03:25.466Z,49.60
2017-06-13T09:05:53.859Z,49.60
2017-06-13T09:08:22.252Z,49.70
2017-06-13T09:10:50.718Z,49.70
2017-06-13T09:13:19.115Z,50.00
2017-06-13T09:15:47.559Z,50.00
2017-06-13T09:18:16.065Z,49.40
2017-06-13T09:20:44.459Z,49.60
2017-06-13T09:23:12.901Z,48.70
2017-06-13T09:25:41.331Z,48.70
2017-06-13T09:28:09.721Z,48.60
2017-06-13T09:30:38.109Z,48.60
2017-06-13T09:33:07.340Z,49.00
2017-06-13T09:35:35.726Z,48.60
2017-06-13T09:38:04.649Z,48.60
2017-06-13T09:40:33.096Z,48.50
2017-06-13T09:43:02.518Z,48.40
2017-06-13T09:45:30.928Z,48.60
2017-06-13T09:47:59.396Z,48.50
2017-06-13T09:50:27.748Z,47.90
2017-06-13T09:52:56.168Z,48.00
2017-06-13T09:55:24.785Z,47.70
2017-06-13T09:57:53.181Z,47.20
2017-06-13T10:00:21.572Z,47.50
2017-06-13T10:02:50.070Z,47.60
2017-06-13T10:05:18.616Z,47.60
2017-06-13T10:07:47.016Z,47.50
2017-06-13T10:10:15.456Z,47.50
2017-06-13T10:12:43.883Z,47.50
2017-06-13T10:15:12.264Z,47.20
2017-06-13T10:17:40.781Z,46.90
2017-06-13T10:20:09.150Z,46.90
2017-06-13T10:22:37.577Z,46.80
2017-06-13T10:25:06.119Z,46.20
2017-06-13T10:27:35.361Z,46.10
2017-06-13T10:30:03.749Z,46.10
2017-06-13T10:32:32.543Z,45.90
2017-06-13T10:35:01.006Z,45.60
2017-06-13T10:37:29.485Z,45.60
2017-06-13T10:39:58.162Z,45.40
2017-06-13T10:42:27.514Z,45.10
2017-06-13T10:44:55.906Z,45.10
2017-06-13T10:47:24.440Z,45.40
2017-06-13T10:49:53.577Z,44.50
2017-06-13T10:52:21.989Z,44.40
2017-06-13T10:54:51.167Z,44.50
2017-06-13T10:57:19.712Z,44.40
2017-06-13T10:59:48.121Z,44.20
2017-06-13T11:02:17.618Z,44.50
2017-06-13T11:04:46.023Z,44.30
2017-06-13T11:07:14.417Z,44.00
2017-06-13T11:09:43.097Z,44.50
2017-06-13T11:12:11.521Z,44.70
2017-06-13T11:14:39.914Z,44.60
2017-06-13T11:17:08.367Z,43.60
2017-06-13T11:19:36.749Z,43.80
2017-06-13T11:22:05.148Z,43.40
2017-06-13T11:24:33.597Z,43.20
2017-06-13T11:27:02.761Z,44.00
2017-06-13T11:29:31.180Z,44.00
2017-06-13T11:31:59.619Z,43.90
2017-06-13T11:34:28.798Z,42.50
2017-06-13T11:36:57.243Z,42.40
2017-06-13T11:39:26.975Z,42.40
2017-06-13T11:41:55.376Z,42.60
2017-06-13T11:44:23.908Z,43.00
2017-06-13T11:46:53.105Z,43.10
2017-06-13T11:49:21.523Z,43.00
2017-06-13T11:51:49.922Z,42.60
2017-06-13T11:54:18.356Z,42.40
2017-06-13T11:56:46.827Z,42.40
2017-06-13T11:59:15.232Z,43.10
2017-06-13T12:01:43.701Z,42.80
2017-06-13T12:04:12.210Z,43.00
2017-06-13T12:06:40.798Z,42.50
2017-06-13T12:09:09.265Z,42.70
2017-06-13T12:11:37.672Z,42.30
2017-06-13T12:14:06.091Z,42.00
2017-06-13T12:16:34.792Z,41.90
2017-06-13T12:19:04.086Z,42.00
2017-06-13T12:21:32.487Z,42.00
2017-06-13T12:24:01.002Z,41.80
2017-06-13T12:26:30.185Z,42.30
2017-06-13T12:28:58.613Z,42.30
2017-06-13T12:31:27.314Z,42.40
2017-06-13T12:33:55.744Z,42.40
2017-06-13T12:36:24.154Z,43.00
2017-06-13T12:38:52.701Z,43.50
2017-06-13T12:41:21.136Z,42.90
2017-06-13T12:43:50.269Z,42.60
2017-06-13T12:46:19.501Z,43.40
2017-06-13T12:48:47.964Z,42.60
2017-06-13T12:51:16.557Z,42.40
2017-06-13T12:53:45.177Z,42.70
2017-06-13T12:56:13.618Z,42.70
2017-06-13T12:58:42.064Z,42.10
2017-06-13T13:01:10.484Z,41.30
2017-06-13T13:03:38.887Z,41.30
2017-06-13T13:06:08.276Z,41.20
2017-06-13T13:08:36.727Z,40.70
2017-06-13T13:11:05.272Z,41.30
2017-06-13T13:13:33.687Z,40.70
2017-06-13T13:16:02.165Z,40.60
2017-06-13T13:18:30.557Z,40.50
2017-06-13T13:20:59.026Z,40.50
2017-06-13T13:23:27.453Z,40.50
2017-06-13T13:25:56.608Z,40.50
2017-06-13T13:28:25.090Z,40.40
2017-06-13T13:30:53.502Z,40.70
2017-06-13T13:33:22.669Z,41.30
2017-06-13T13:35:51.138Z,41.10
2017-06-13T13:38:19.570Z,41.00
2017-06-13T13:40:48.027Z,41.20
2017-06-13T13:43:16.451Z,41.10
2017-06-13T13:45:44.945Z,41.00
2017-06-13T13:48:13.404Z,41.40
2017-06-13T13:50:41.847Z,40.40
2017-06-13T13:53:10.259Z,41.00
2017-06-13T13:55:38.701Z,41.10
2017-06-13T13:58:07.154Z,40.90
2017-06-13T14:00:35.715Z,40.50
2017-06-13T14:03:04.276Z,41.00
2017-06-13T14:05:33.014Z,41.00
2017-06-13T14:08:01.512Z,40.60
2017-06-13T14:10:30.734Z,40.50
2017-06-13T14:12:59.172Z,40.50
2017-06-13T14:15:27.631Z,40.90
2017-06-13T14:17:56.075Z,40.60
2017-06-13T14:20:24.523Z,40.50
2017-06-13T14:22:53.475Z,40.40
2017-06-13T14:25:21.946Z,41.00
2017-06-13T14:27:50.528Z,41.00
2017-06-13T14:30:18.909Z,41.10
2017-06-13T14:32:47.359Z,40.60
2017-06-13T14:35:15.804Z,40.50
2017-06-13T14:37:44.256Z,41.10
2017-06-13T14:40:12.728Z,40.90
2017-06-13T14:42:41.194Z,41.10
2017-06-13T14:45:09.661Z,41.20
2017-06-13T14:47:38.971Z,41.30
2017-06-13T14:50:07.368Z,41.20
2017-06-13T14:52:35.846Z,41.20
2017-06-13T14:55:04.303Z,41.40
2017-06-13T15:00:33.760Z,41.30
2017-06-13T15:03:02.450Z,41.20
2017-06-13T15:05:30.886Z,41.30
2017-06-13T15:08:00.115Z,41.40
2017-06-13T15:10:30.334Z,41.40
2017-06-13T15:12:58.767Z,41.40
2017-06-13T15:15:27.230Z,41.70
2017-06-13T15:17:55.661Z,41.70
2017-06-13T15:20:24.076Z,41.70
2017-06-13T15:22:52.589Z,41.70
2017-06-13T15:25:21.167Z,41.80
2017-06-13T15:27:49.628Z,42.00
2017-06-13T15:30:18.105Z,42.10
2017-06-13T15:32:46.559Z,41.90
2017-06-13T15:35:15.017Z,41.80
2017-06-13T15:37:43.440Z,41.80
2017-06-13T15:40:12.217Z,41.90
2017-06-13T15:42:40.618Z,42.00
2017-06-13T15:45:09.012Z,41.90
2017-06-13T15:47:37.670Z,42.00
2017-06-13T15:50:06.324Z,41.90
2017-06-13T15:52:35.508Z,42.30
2017-06-13T15:55:04.992Z,42.70
2017-06-13T15:57:33.431Z,42.70
2017-06-13T16:00:01.860Z,42.50
2017-06-13T16:02:30.344Z,42.50
2017-06-13T16:04:58.768Z,42.30
2017-06-13T16:07:27.254Z,42.20
2017-06-13T16:09:55.675Z,42.40
2017-06-13T16:12:24.531Z,42.40
2017-06-13T16:14:55.474Z,42.40
2017-06-13T16:17:24.625Z,42.80
2017-06-13T16:19:53.032Z,42.70
2017-06-13T16:22:21.545Z,42.90
2017-06-13T16:24:50.003Z,42.80
2017-06-13T16:27:18.422Z,42.90
2017-06-13T16:29:46.914Z,42.90
2017-06-13T16:32:15.448Z,42.80
2017-06-13T16:34:43.874Z,42.70
2017-06-13T16:37:12.350Z,42.70
2017-06-13T16:39:40.774Z,42.80
2017-06-13T16:42:09.418Z,42.70
2017-06-13T16:44:37.895Z,42.60
2017-06-13T16:47:06.345Z,42.40
2017-06-13T16:49:34.843Z,42.50
2017-06-13T16:52:03.349Z,42.60
2017-06-13T16:54:31.776Z,42.70
2017-06-13T16:57:00.272Z,42.80
2017-06-13T16:59:28.762Z,42.80
2017-06-13T17:01:57.242Z,42.70
2017-06-13T17:04:25.754Z,42.70
2017-06-13T17:06:55.067Z,43.10
2017-06-13T17:09:24.745Z,43.80
2017-06-13T17:11:53.212Z,43.10
2017-06-13T17:14:21.668Z,43.40
2017-06-13T17:16:50.990Z,43.60
2017-06-13T17:19:19.419Z,43.70
2017-06-13T17:21:48.049Z,43.70
2017-06-13T17:24:16.608Z,43.90
2017-06-13T17:26:45.159Z,44.10
2017-06-13T17:29:13.680Z,44.10
2017-06-13T17:31:42.495Z,44.10
2017-06-13T17:34:10.973Z,44.00
2017-06-13T17:36:39.698Z,43.90
2017-06-13T17:39:08.314Z,44.00
2017-06-13T17:41:36.825Z,43.90
2017-06-13T17:44:05.372Z,43.90
2017-06-13T17:46:34.080Z,43.90
2017-06-13T17:49:02.774Z,43.90
2017-06-13T17:51:31.255Z,43.90
2017-06-13T17:54:00.688Z,43.90
2017-06-13T17:56:29.939Z,44.00
2017-06-13T17:58:58.381Z,43.90
2017-06-13T18:01:28.067Z,44.00
2017-06-13T18:03:56.650Z,44.00
2017-06-13T18:06:25.191Z,44.00
2017-06-13T18:08:54.399Z,44.00
2017-06-13T18:11:22.869Z,44.00
2017-06-13T18:13:56.331Z,44.20
2017-06-13T18:16:25.154Z,44.20
2017-06-13T18:18:53.757Z,44.20
2017-06-13T18:21:23.513Z,44.00
2017-06-13T18:23:52.789Z,44.00
2017-06-13T18:26:21.280Z,43.90
2017-06-13T18:28:49.845Z,43.90
2017-06-13T18:31:18.335Z,43.90
2017-06-13T18:33:46.767Z,43.90
2017-06-13T18:36:16.341Z,44.00
2017-06-13T18:38:44.892Z,43.90
2017-06-13T18:41:13.473Z,44.00
2017-06-13T18:43:42.351Z,43.90
2017-06-13T18:46:11.047Z,44.30
2017-06-13T18:48:39.572Z,44.00
2017-06-13T18:51:08.319Z,44.00
2017-06-13T18:53:36.762Z,44.50
2017-06-13T18:56:05.190Z,43.90
2017-06-13T18:58:34.477Z,43.90
2017-06-13T19:01:03.004Z,43.90
2017-06-13T19:03:31.516Z,43.90
2017-06-13T19:06:00.768Z,44.30
2017-06-13T19:08:29.184Z,43.90
2017-06-13T19:10:58.389Z,44.00
2017-06-13T19:13:26.892Z,44.00
2017-06-13T19:15:57.362Z,44.10
2017-06-13T19:18:25.898Z,44.20
2017-06-13T19:20:54.506Z,44.20
2017-06-13T19:23:23.274Z,44.30
2017-06-13T19:25:51.715Z,44.30
2017-06-13T19:28:20.344Z,44.30
2017-06-13T19:30:49.714Z,44.30
2017-06-13T19:33:18.425Z,44.30
2017-06-13T19:35:47.417Z,44.20
2017-06-13T19:38:17.029Z,44.40
2017-06-13T19:40:45.557Z,44.30
2017-06-13T19:43:13.963Z,44.40
2017-06-13T19:45:43.309Z,43.80
2017-06-13T19:48:11.750Z,43.80
2017-06-13T19:50:40.564Z,43.80
2017-06-13T19:53:09.498Z,43.80
2017-06-13T19:55:37.954Z,43.90
2017-06-13T19:58:06.466Z,43.80
2017-06-13T20:00:35.915Z,44.50
2017-06-13T20:03:04.433Z,44.20
2017-06-13T20:05:32.838Z,44.30
2017-06-13T20:08:01.383Z,44.50
2017-06-13T20:10:30.687Z,45.40
2017-06-13T20:12:59.202Z,45.80
2017-06-13T20:15:28.703Z,45.80
2017-06-13T20:17:57.376Z,45.90
2017-06-13T20:20:26.827Z,46.40
2017-06-13T20:23:00.946Z,46.40
2017-06-13T20:25:30.163Z,47.20
2017-06-13T20:27:58.638Z,47.10
2017-06-13T20:30:32.802Z,47.40
2017-06-13T20:33:01.293Z,47.60
2017-06-13T20:35:31.550Z,48.10
2017-06-13T20:38:00.040Z,48.10
2017-06-13T20:40:28.519Z,48.10
2017-06-13T20:42:56.945Z,48.00
2017-06-13T20:45:25.585Z,47.90
2017-06-13T20:47:54.058Z,47.90
2017-06-13T20:50:22.620Z,47.90
2017-06-13T20:52:52.141Z,49.10
2017-06-13T20:55:20.745Z,48.60
2017-06-13T20:57:49.254Z,48.40
2017-06-13T21:00:18.534Z,48.80
2017-06-13T21:02:47.141Z,48.80
2017-06-13T21:05:15.796Z,48.70
2017-06-13T21:07:44.313Z,48.80
2017-06-13T21:10:12.756Z,48.70
2017-06-13T21:12:41.278Z,48.90
2017-06-13T21:15:09.766Z,49.00
2017-06-13T21:17:38.941Z,48.90
2017-06-13T21:20:07.723Z,48.90
2017-06-13T21:22:36.136Z,48.90
2017-06-13T21:25:05.371Z,49.10
2017-06-13T21:27:33.882Z,49.10
2017-06-13T21:30:02.439Z,49.30
2017-06-13T21:32:32.464Z,49.50
2017-06-13T21:35:03.541Z,49.40
2017-06-13T21:37:32.007Z,49.40
2017-06-13T21:40:00.401Z,49.50
2017-06-13T21:42:29.165Z,49.60
2017-06-13T21:44:57.592Z,49.60
2017-06-13T21:47:25.994Z,49.60
2017-06-13T21:49:54.614Z,49.70
2017-06-13T21:52:23.063Z,49.60
2017-06-13T21:54:51.526Z,49.80
2017-06-13T21:57:20.725Z,50.00
2017-06-13T21:59:49.137Z,50.00
2017-06-13T22:02:17.652Z,50.20
2017-06-13T22:04:46.264Z,49.90
2017-06-13T22:07:14.648Z,50.30
2017-06-13T22:09:43.059Z,50.20
2017-06-13T22:12:11.518Z,50.40
2017-06-13T22:14:40.713Z,50.90
2017-06-13T22:17:09.130Z,50.90
2017-06-13T22:19:37.564Z,50.80
2017-06-13T22:22:06.743Z,50.80
2017-06-13T22:24:35.269Z,50.60
2017-06-13T22:27:03.998Z,50.80
2017-06-13T22:29:32.396Z,50.90
2017-06-13T22:32:00.794Z,51.10
2017-06-13T22:34:29.200Z,51.10
2017-06-13T22:36:58.486Z,51.40
2017-06-13T22:39:26.848Z,51.30
2017-06-13T22:41:55.279Z,51.30
2017-06-13T22:44:23.711Z,51.10
2017-06-13T22:46:52.330Z,51.30
2017-06-13T22:49:22.612Z,51.30
2017-06-13T22:51:50.992Z,51.50
2017-06-13T22:54:19.386Z,51.40
2017-06-13T22:56:47.792Z,51.40
2017-06-13T22:59:16.176Z,51.60
2017-06-13T23:01:45.335Z,52.40
2017-06-13T23:04:13.997Z,51.50
2017-06-13T23:06:42.408Z,52.00
2017-06-13T23:09:10.832Z,52.00
2017-06-13T23:11:39.313Z,52.20
2017-06-13T23:14:07.857Z,52.00
2017-06-13T23:16:36.260Z,52.30
2017-06-13T23:19:04.876Z,52.20
2017-06-13T23:21:33.294Z,51.90
2017-06-13T23:24:01.693Z,52.40
2017-06-13T23:26:30.123Z,52.50
2017-06-13T23:28:58.510Z,52.50
2017-06-13T23:31:27.018Z,52.30
2017-06-13T23:33:55.677Z,52.60
2017-06-13T23:36:24.238Z,52.50
2017-06-13T23:38:53.392Z,52.80
2017-06-13T23:41:21.922Z,52.90
2017-06-13T23:43:51.072Z,52.80
2017-06-13T23:46:19.500Z,53.00
2017-06-13T23:48:47.980Z,52.80
2017-06-13T23:51:16.374Z,52.70
2017-06-13T23:53:44.763Z,53.20
2017-06-13T23:56:13.162Z,53.30
2017-06-13T23:58:41.562Z,53.70
